Terminal Aerodrome Forecast
Issued by NWS

Current Version | Previous Version | Text Only | Print | Product List | Glossary On
Versions: 1 2 3 4 5 6 7 8 9 10 11 12 13 14 15 16 17 18 19 20
000 FTUS41 KBTV 211126 TAFMPV TAF KMPV 211126Z 2112/2212 19009KT P6SM SCT080 WS020/24045KT FM212000 30010KT P6SM VCSH OVC050 FM220300 32011G17KT P6SM SCT150 FM220700 34007KT P6SM SCT200=

USA.gov is the U.S. government's official web portal to all federal, state and local government web resources and services.